sensor_id;sensor_type;location;lat;lon;timestamp;temperature;humidity
17815;DHT22;9031;50.974;11.330;2022-12-18T00:00:44;-8.50;99.90
17815;DHT22;9031;50.974;11.330;2022-12-18T00:03:12;-8.50;99.90
17815;DHT22;9031;50.974;11.330;2022-12-18T00:05:45;-8.30;99.90
17815;DHT22;9031;50.974;11.330;2022-12-18T00:08:10;-8.10;99.90
17815;DHT22;9031;50.974;11.330;2022-12-18T00:10:36;-8.20;99.90
17815;DHT22;9031;50.974;11.330;2022-12-18T00:13:01;-8.60;99.90
17815;DHT22;9031;50.974;11.330;2022-12-18T00:15:27;-8.60;99.90
17815;DHT22;9031;50.974;11.330;2022-12-18T00:17:52;-8.60;99.90
17815;DHT22;9031;50.974;11.330;2022-12-18T00:20:18;-8.70;99.90
17815;DHT22;9031;50.974;11.330;2022-12-18T00:22:51;-8.80;99.90
17815;DHT22;9031;50.974;11.330;2022-12-18T00:25:17;-8.70;99.90
17815;DHT22;9031;50.974;11.330;2022-12-18T00:27:42;-8.70;99.90
17815;DHT22;9031;50.974;11.330;2022-12-18T00:30:08;-8.50;99.90
17815;DHT22;9031;50.974;11.330;2022-12-18T00:32:34;-8.40;99.90
17815;DHT22;9031;50.974;11.330;2022-12-18T00:34:59;-8.40;99.90
17815;DHT22;9031;50.974;11.330;2022-12-18T00:37:24;-8.60;99.90
17815;DHT22;9031;50.974;11.330;2022-12-18T00:39:50;-8.60;99.90
17815;DHT22;9031;50.974;11.330;2022-12-18T00:42:15;-8.40;99.90
17815;DHT22;9031;50.974;11.330;2022-12-18T00:44:59;-8.20;99.90
17815;DHT22;9031;50.974;11.330;2022-12-18T00:47:25;-8.00;99.90
17815;DHT22;9031;50.974;11.330;2022-12-18T00:49:50;-7.90;99.90
17815;DHT22;9031;50.974;11.330;2022-12-18T00:52:16;-7.80;99.90
17815;DHT22;9031;50.974;11.330;2022-12-18T00:54:41;-7.70;99.90
17815;DHT22;9031;50.974;11.330;2022-12-18T00:57:07;-7.60;99.90
17815;DHT22;9031;50.974;11.330;2022-12-18T00:59:32;-7.80;99.90
17815;DHT22;9031;50.974;11.330;2022-12-18T01:01:58;-7.90;99.90
17815;DHT22;9031;50.974;11.330;2022-12-18T01:04:23;-7.80;99.90
17815;DHT22;9031;50.974;11.330;2022-12-18T01:06:49;-8.00;99.90
17815;DHT22;9031;50.974;11.330;2022-12-18T01:09:14;-7.90;99.90
17815;DHT22;9031;50.974;11.330;2022-12-18T01:11:40;-7.90;99.90
17815;DHT22;9031;50.974;11.330;2022-12-18T01:14:06;-7.90;99.90
17815;DHT22;9031;50.974;11.330;2022-12-18T01:16:31;-7.80;99.90
17815;DHT22;9031;50.974;11.330;2022-12-18T01:18:57;-7.80;99.90
17815;DHT22;9031;50.974;11.330;2022-12-18T01:21:23;-7.80;99.90
17815;DHT22;9031;50.974;11.330;2022-12-18T01:23:54;-7.80;99.90
17815;DHT22;9031;50.974;11.330;2022-12-18T01:26:20;-8.10;99.90
17815;DHT22;9031;50.974;11.330;2022-12-18T01:28:46;-8.30;99.90
17815;DHT22;9031;50.974;11.330;2022-12-18T01:31:20;-8.20;99.90
17815;DHT22;9031;50.974;11.330;2022-12-18T01:33:46;-8.50;99.90
17815;DHT22;9031;50.974;11.330;2022-12-18T01:36:28;-8.70;99.90
17815;DHT22;9031;50.974;11.330;2022-12-18T01:38:54;-8.90;99.90
17815;DHT22;9031;50.974;11.330;2022-12-18T01:41:24;-9.00;99.90
17815;DHT22;9031;50.974;11.330;2022-12-18T01:43:55;-9.00;99.90
17815;DHT22;9031;50.974;11.330;2022-12-18T01:46:24;-9.00;99.90
17815;DHT22;9031;50.974;11.330;2022-12-18T01:48:57;-9.00;99.90
17815;DHT22;9031;50.974;11.330;2022-12-18T01:51:25;-9.10;99.90
17815;DHT22;9031;50.974;11.330;2022-12-18T01:53:52;-9.20;99.90
17815;DHT22;9031;50.974;11.330;2022-12-18T01:56:19;-9.20;99.90
17815;DHT22;9031;50.974;11.330;2022-12-18T01:59:02;-9.20;99.90
17815;DHT22;9031;50.974;11.330;2022-12-18T02:01:29;-9.10;99.90
17815;DHT22;9031;50.974;11.330;2022-12-18T02:03:55;-9.10;99.90
17815;DHT22;9031;50.974;11.330;2022-12-18T02:06:35;-9.10;99.90
17815;DHT22;9031;50.974;11.330;2022-12-18T02:09:10;-9.00;99.90
17815;DHT22;9031;50.974;11.330;2022-12-18T02:11:48;-9.10;99.90
17815;DHT22;9031;50.974;11.330;2022-12-18T02:14:28;-9.30;99.90
17815;DHT22;9031;50.974;11.330;2022-12-18T02:17:06;-9.40;99.90
17815;DHT22;9031;50.974;11.330;2022-12-18T02:20:12;-9.30;99.90
17815;DHT22;9031;50.974;11.330;2022-12-18T02:23:05;-9.00;99.90
17815;DHT22;9031;50.974;11.330;2022-12-18T02:28:20;-8.90;99.90
17815;DHT22;9031;50.974;11.330;2022-12-18T02:30:49;-8.80;99.90
17815;DHT22;9031;50.974;11.330;2022-12-18T02:33:15;-8.70;99.90
17815;DHT22;9031;50.974;11.330;2022-12-18T02:35:42;-8.60;99.90
17815;DHT22;9031;50.974;11.330;2022-12-18T02:38:09;-8.60;99.90
17815;DHT22;9031;50.974;11.330;2022-12-18T02:40:37;-8.90;99.90
17815;DHT22;9031;50.974;11.330;2022-12-18T02:43:11;-9.30;99.90
17815;DHT22;9031;50.974;11.330;2022-12-18T02:45:54;-9.50;99.90
17815;DHT22;9031;50.974;11.330;2022-12-18T02:48:32;-9.50;99.90
17815;DHT22;9031;50.974;11.330;2022-12-18T02:51:06;-9.50;99.90
17815;DHT22;9031;50.974;11.330;2022-12-18T02:53:45;-9.40;99.90
17815;DHT22;9031;50.974;11.330;2022-12-18T02:56:21;-9.30;99.90
17815;DHT22;9031;50.974;11.330;2022-12-18T03:04:38;-9.30;99.90
17815;DHT22;9031;50.974;11.330;2022-12-18T03:07:17;-9.40;99.90
17815;DHT22;9031;50.974;11.330;2022-12-18T03:09:47;-9.40;99.90
17815;DHT22;9031;50.974;11.330;2022-12-18T03:12:22;-9.70;99.90
17815;DHT22;9031;50.974;11.330;2022-12-18T03:15:03;-9.80;99.90
17815;DHT22;9031;50.974;11.330;2022-12-18T03:17:32;-9.40;99.90
17815;DHT22;9031;50.974;11.330;2022-12-18T03:20:04;-9.20;99.90
17815;DHT22;9031;50.974;11.330;2022-12-18T03:22:32;-9.20;99.90
17815;DHT22;9031;50.974;11.330;2022-12-18T03:25:01;-9.40;99.90
17815;DHT22;9031;50.974;11.330;2022-12-18T03:27:29;-9.50;99.90
17815;DHT22;9031;50.974;11.330;2022-12-18T03:30:03;-9.60;99.90
17815;DHT22;9031;50.974;11.330;2022-12-18T03:32:42;-9.60;99.90
17815;DHT22;9031;50.974;11.330;2022-12-18T03:35:12;-9.40;99.90
17815;DHT22;9031;50.974;11.330;2022-12-18T03:37:38;-9.20;99.90
17815;DHT22;9031;50.974;11.330;2022-12-18T03:40:05;-9.10;99.90
17815;DHT22;9031;50.974;11.330;2022-12-18T03:45:13;-9.30;99.90
17815;DHT22;9031;50.974;11.330;2022-12-18T03:50:38;-9.00;99.90
17815;DHT22;9031;50.974;11.330;2022-12-18T03:55:47;-9.10;99.90
17815;DHT22;9031;50.974;11.330;2022-12-18T03:58:19;-8.90;99.90
17815;DHT22;9031;50.974;11.330;2022-12-18T04:00:46;-8.90;99.90
17815;DHT22;9031;50.974;11.330;2022-12-18T04:03:14;-9.00;99.90
17815;DHT22;9031;50.974;11.330;2022-12-18T04:05:42;-9.10;99.90
17815;DHT22;9031;50.974;11.330;2022-12-18T04:08:08;-9.10;99.90
17815;DHT22;9031;50.974;11.330;2022-12-18T04:10:34;-9.40;99.90
17815;DHT22;9031;50.974;11.330;2022-12-18T04:13:00;-9.90;99.90
17815;DHT22;9031;50.974;11.330;2022-12-18T04:15:25;-10.20;99.90
17815;DHT22;9031;50.974;11.330;2022-12-18T04:17:51;-10.30;99.90
17815;DHT22;9031;50.974;11.330;2022-12-18T04:20:17;-10.30;99.90
17815;DHT22;9031;50.974;11.330;2022-12-18T04:22:42;-10.30;99.90
17815;DHT22;9031;50.974;11.330;2022-12-18T04:25:08;-10.10;99.90
17815;DHT22;9031;50.974;11.330;2022-12-18T04:27:34;-10.10;99.90
17815;DHT22;9031;50.974;11.330;2022-12-18T04:29:59;-10.30;99.90
17815;DHT22;9031;50.974;11.330;2022-12-18T04:32:25;-10.10;99.90
17815;DHT22;9031;50.974;11.330;2022-12-18T04:34:50;-9.90;99.90
17815;DHT22;9031;50.974;11.330;2022-12-18T04:37:16;-9.90;99.90
17815;DHT22;9031;50.974;11.330;2022-12-18T04:39:41;-10.20;99.90
17815;DHT22;9031;50.974;11.330;2022-12-18T04:42:07;-10.20;99.90
17815;DHT22;9031;50.974;11.330;2022-12-18T04:44:32;-10.00;99.90
17815;DHT22;9031;50.974;11.330;2022-12-18T04:46:58;-9.80;99.90
17815;DHT22;9031;50.974;11.330;2022-12-18T04:49:23;-9.80;99.90
17815;DHT22;9031;50.974;11.330;2022-12-18T04:51:49;-9.80;99.90
17815;DHT22;9031;50.974;11.330;2022-12-18T04:54:14;-9.70;99.90
17815;DHT22;9031;50.974;11.330;2022-12-18T04:56:40;-9.80;99.90
17815;DHT22;9031;50.974;11.330;2022-12-18T04:59:05;-9.70;99.90
17815;DHT22;9031;50.974;11.330;2022-12-18T05:01:34;-9.70;99.90
17815;DHT22;9031;50.974;11.330;2022-12-18T05:03:59;-9.80;99.90
17815;DHT22;9031;50.974;11.330;2022-12-18T05:06:25;-9.60;99.90
17815;DHT22;9031;50.974;11.330;2022-12-18T05:08:50;-9.50;99.90
17815;DHT22;9031;50.974;11.330;2022-12-18T05:11:16;-9.30;99.90
17815;DHT22;9031;50.974;11.330;2022-12-18T05:13:43;-9.20;99.90
17815;DHT22;9031;50.974;11.330;2022-12-18T05:16:09;-9.10;99.90
17815;DHT22;9031;50.974;11.330;2022-12-18T05:18:35;-9.00;99.90
17815;DHT22;9031;50.974;11.330;2022-12-18T05:21:01;-9.10;99.90
17815;DHT22;9031;50.974;11.330;2022-12-18T05:23:26;-9.00;99.90
17815;DHT22;9031;50.974;11.330;2022-12-18T05:25:57;-9.20;99.90
17815;DHT22;9031;50.974;11.330;2022-12-18T05:28:25;-9.30;99.90
17815;DHT22;9031;50.974;11.330;2022-12-18T05:30:52;-9.30;99.90
17815;DHT22;9031;50.974;11.330;2022-12-18T05:33:19;-9.40;99.90
17815;DHT22;9031;50.974;11.330;2022-12-18T05:35:49;-9.80;99.90
17815;DHT22;9031;50.974;11.330;2022-12-18T05:38:15;-10.20;99.90
17815;DHT22;9031;50.974;11.330;2022-12-18T05:40:42;-10.00;99.90
17815;DHT22;9031;50.974;11.330;2022-12-18T05:43:08;-10.00;99.90
17815;DHT22;9031;50.974;11.330;2022-12-18T05:45:37;-9.90;99.90
17815;DHT22;9031;50.974;11.330;2022-12-18T05:48:03;-9.80;99.90
17815;DHT22;9031;50.974;11.330;2022-12-18T05:50:29;-9.90;99.90
17815;DHT22;9031;50.974;11.330;2022-12-18T05:52:54;-9.80;99.90
17815;DHT22;9031;50.974;11.330;2022-12-18T05:55:20;-9.70;99.90
17815;DHT22;9031;50.974;11.330;2022-12-18T05:57:45;-9.80;99.90
17815;DHT22;9031;50.974;11.330;2022-12-18T06:00:11;-10.00;99.90
17815;DHT22;9031;50.974;11.330;2022-12-18T06:02:37;-10.30;99.90
17815;DHT22;9031;50.974;11.330;2022-12-18T06:05:02;-10.10;99.90
17815;DHT22;9031;50.974;11.330;2022-12-18T06:07:28;-10.10;99.90
17815;DHT22;9031;50.974;11.330;2022-12-18T06:09:53;-10.20;99.90
17815;DHT22;9031;50.974;11.330;2022-12-18T06:12:19;-10.50;99.90
17815;DHT22;9031;50.974;11.330;2022-12-18T06:14:44;-10.70;99.90
17815;DHT22;9031;50.974;11.330;2022-12-18T06:17:10;-10.80;99.90
17815;DHT22;9031;50.974;11.330;2022-12-18T06:19:36;-10.60;99.90
17815;DHT22;9031;50.974;11.330;2022-12-18T06:22:01;-10.30;99.90
17815;DHT22;9031;50.974;11.330;2022-12-18T06:24:27;-10.20;99.90
17815;DHT22;9031;50.974;11.330;2022-12-18T06:26:52;-9.90;99.90
17815;DHT22;9031;50.974;11.330;2022-12-18T06:29:18;-9.80;99.90
17815;DHT22;9031;50.974;11.330;2022-12-18T06:31:43;-9.90;99.90
17815;DHT22;9031;50.974;11.330;2022-12-18T06:34:09;-10.10;99.90
17815;DHT22;9031;50.974;11.330;2022-12-18T06:36:34;-10.10;99.90
17815;DHT22;9031;50.974;11.330;2022-12-18T06:39:00;-10.00;99.90
17815;DHT22;9031;50.974;11.330;2022-12-18T06:41:25;-10.00;99.90
17815;DHT22;9031;50.974;11.330;2022-12-18T06:43:51;-9.90;99.90
17815;DHT22;9031;50.974;11.330;2022-12-18T06:46:17;-9.70;99.90
17815;DHT22;9031;50.974;11.330;2022-12-18T06:48:42;-9.70;99.90
17815;DHT22;9031;50.974;11.330;2022-12-18T06:51:08;-9.60;99.90
17815;DHT22;9031;50.974;11.330;2022-12-18T06:53:33;-9.70;99.90
17815;DHT22;9031;50.974;11.330;2022-12-18T06:56:02;-9.60;99.90
17815;DHT22;9031;50.974;11.330;2022-12-18T06:58:28;-9.50;99.90
17815;DHT22;9031;50.974;11.330;2022-12-18T07:00:58;-9.60;99.90
17815;DHT22;9031;50.974;11.330;2022-12-18T07:03:24;-9.60;99.90
17815;DHT22;9031;50.974;11.330;2022-12-18T07:05:49;-9.70;99.90
17815;DHT22;9031;50.974;11.330;2022-12-18T07:08:15;-9.80;99.90
17815;DHT22;9031;50.974;11.330;2022-12-18T07:10:42;-9.90;99.90
17815;DHT22;9031;50.974;11.330;2022-12-18T07:13:07;-9.90;99.90
17815;DHT22;9031;50.974;11.330;2022-12-18T07:15:33;-9.90;99.90
17815;DHT22;9031;50.974;11.330;2022-12-18T07:17:58;-9.90;99.90
17815;DHT22;9031;50.974;11.330;2022-12-18T07:20:24;-9.80;99.90
17815;DHT22;9031;50.974;11.330;2022-12-18T07:22:49;-9.70;99.90
17815;DHT22;9031;50.974;11.330;2022-12-18T07:25:15;-9.70;99.90
17815;DHT22;9031;50.974;11.330;2022-12-18T07:27:40;-9.70;99.90
17815;DHT22;9031;50.974;11.330;2022-12-18T07:30:06;-9.70;99.90
17815;DHT22;9031;50.974;11.330;2022-12-18T07:32:32;-9.60;99.90
17815;DHT22;9031;50.974;11.330;2022-12-18T07:34:57;-9.50;99.90
17815;DHT22;9031;50.974;11.330;2022-12-18T07:37:23;-9.80;99.90
17815;DHT22;9031;50.974;11.330;2022-12-18T07:39:48;-9.80;99.90
17815;DHT22;9031;50.974;11.330;2022-12-18T07:42:14;-9.70;99.90
17815;DHT22;9031;50.974;11.330;2022-12-18T07:44:58;-9.60;99.90
17815;DHT22;9031;50.974;11.330;2022-12-18T07:47:24;-9.60;99.90
17815;DHT22;9031;50.974;11.330;2022-12-18T07:49:49;-9.60;99.90
17815;DHT22;9031;50.974;11.330;2022-12-18T07:52:15;-9.60;99.90
17815;DHT22;9031;50.974;11.330;2022-12-18T07:54:40;-9.50;99.90
17815;DHT22;9031;50.974;11.330;2022-12-18T07:57:07;-9.40;99.90
17815;DHT22;9031;50.974;11.330;2022-12-18T07:59:32;-9.30;99.90
17815;DHT22;9031;50.974;11.330;2022-12-18T08:01:58;-9.30;99.90
17815;DHT22;9031;50.974;11.330;2022-12-18T08:04:24;-9.20;99.90
17815;DHT22;9031;50.974;11.330;2022-12-18T08:06:49;-9.20;99.90
17815;DHT22;9031;50.974;11.330;2022-12-18T08:09:15;-9.20;99.90
17815;DHT22;9031;50.974;11.330;2022-12-18T08:11:40;-9.10;99.90
17815;DHT22;9031;50.974;11.330;2022-12-18T08:14:06;-9.10;99.90
17815;DHT22;9031;50.974;11.330;2022-12-18T08:16:31;-9.10;99.90
17815;DHT22;9031;50.974;11.330;2022-12-18T08:18:57;-9.00;99.90
17815;DHT22;9031;50.974;11.330;2022-12-18T08:21:30;-8.90;99.90
17815;DHT22;9031;50.974;11.330;2022-12-18T08:23:58;-8.90;99.90
17815;DHT22;9031;50.974;11.330;2022-12-18T08:26:25;-8.90;99.90
17815;DHT22;9031;50.974;11.330;2022-12-18T08:28:51;-8.70;99.90
17815;DHT22;9031;50.974;11.330;2022-12-18T08:31:18;-8.80;99.90
17815;DHT22;9031;50.974;11.330;2022-12-18T08:33:44;-9.00;99.90
17815;DHT22;9031;50.974;11.330;2022-12-18T08:36:10;-8.90;99.90
17815;DHT22;9031;50.974;11.330;2022-12-18T08:38:36;-8.60;99.90
17815;DHT22;9031;50.974;11.330;2022-12-18T08:41:04;-8.30;99.90
17815;DHT22;9031;50.974;11.330;2022-12-18T08:43:29;-8.40;99.90
17815;DHT22;9031;50.974;11.330;2022-12-18T08:46:15;-8.70;99.90
17815;DHT22;9031;50.974;11.330;2022-12-18T08:48:40;-8.60;99.90
17815;DHT22;9031;50.974;11.330;2022-12-18T08:51:05;-8.10;99.90
17815;DHT22;9031;50.974;11.330;2022-12-18T08:53:31;-7.80;99.90
17815;DHT22;9031;50.974;11.330;2022-12-18T08:55:57;-7.40;99.90
17815;DHT22;9031;50.974;11.330;2022-12-18T08:58:23;-7.60;99.90
17815;DHT22;9031;50.974;11.330;2022-12-18T09:00:48;-7.90;99.90
17815;DHT22;9031;50.974;11.330;2022-12-18T09:03:15;-8.20;99.90
17815;DHT22;9031;50.974;11.330;2022-12-18T09:05:42;-8.10;99.90
17815;DHT22;9031;50.974;11.330;2022-12-18T09:08:08;-7.60;99.90
17815;DHT22;9031;50.974;11.330;2022-12-18T09:10:33;-7.40;99.90
17815;DHT22;9031;50.974;11.330;2022-12-18T09:12:59;-7.70;99.90
17815;DHT22;9031;50.974;11.330;2022-12-18T09:15:25;-7.60;99.90
17815;DHT22;9031;50.974;11.330;2022-12-18T09:17:51;-7.40;99.90
17815;DHT22;9031;50.974;11.330;2022-12-18T09:20:18;-6.70;99.90
17815;DHT22;9031;50.974;11.330;2022-12-18T09:22:44;-6.30;99.90
17815;DHT22;9031;50.974;11.330;2022-12-18T09:25:09;-6.30;99.90
17815;DHT22;9031;50.974;11.330;2022-12-18T09:27:35;-6.10;99.90
17815;DHT22;9031;50.974;11.330;2022-12-18T09:30:01;-5.50;99.90
17815;DHT22;9031;50.974;11.330;2022-12-18T09:32:27;-5.40;99.90
17815;DHT22;9031;50.974;11.330;2022-12-18T09:34:52;-5.40;99.90
17815;DHT22;9031;50.974;11.330;2022-12-18T09:37:18;-5.20;99.90
17815;DHT22;9031;50.974;11.330;2022-12-18T09:39:43;-4.20;99.90
17815;DHT22;9031;50.974;11.330;2022-12-18T09:42:20;-3.30;99.90
17815;DHT22;9031;50.974;11.330;2022-12-18T09:44:49;-3.00;99.90
17815;DHT22;9031;50.974;11.330;2022-12-18T09:47:34;-2.70;99.90
17815;DHT22;9031;50.974;11.330;2022-12-18T09:50:05;-1.80;99.90
17815;DHT22;9031;50.974;11.330;2022-12-18T09:52:43;-2.20;99.90
17815;DHT22;9031;50.974;11.330;2022-12-18T09:55:29;-2.60;99.90
17815;DHT22;9031;50.974;11.330;2022-12-18T09:58:16;-3.30;99.90
17815;DHT22;9031;50.974;11.330;2022-12-18T10:00:43;-4.00;99.90
17815;DHT22;9031;50.974;11.330;2022-12-18T10:03:10;-4.50;99.90
17815;DHT22;9031;50.974;11.330;2022-12-18T10:06:01;-4.90;99.90
17815;DHT22;9031;50.974;11.330;2022-12-18T10:11:34;-4.90;99.90
17815;DHT22;9031;50.974;11.330;2022-12-18T10:20:54;-4.40;99.90
17815;DHT22;9031;50.974;11.330;2022-12-18T10:23:33;-4.30;99.90
17815;DHT22;9031;50.974;11.330;2022-12-18T10:26:09;-4.20;99.90
17815;DHT22;9031;50.974;11.330;2022-12-18T10:28:37;-4.00;99.90
17815;DHT22;9031;50.974;11.330;2022-12-18T10:31:20;-3.90;99.90
17815;DHT22;9031;50.974;11.330;2022-12-18T10:33:46;-3.80;99.90
17815;DHT22;9031;50.974;11.330;2022-12-18T10:36:12;-3.50;99.90
17815;DHT22;9031;50.974;11.330;2022-12-18T10:38:38;-3.30;99.90
17815;DHT22;9031;50.974;11.330;2022-12-18T10:43:47;-3.00;99.90
17815;DHT22;9031;50.974;11.330;2022-12-18T10:46:19;-2.80;99.90
17815;DHT22;9031;50.974;11.330;2022-12-18T10:48:52;-2.70;99.90
17815;DHT22;9031;50.974;11.330;2022-12-18T10:51:24;-2.50;99.90
17815;DHT22;9031;50.974;11.330;2022-12-18T10:54:00;-2.50;99.90
17815;DHT22;9031;50.974;11.330;2022-12-18T10:56:31;-2.50;99.90
17815;DHT22;9031;50.974;11.330;2022-12-18T10:59:05;-2.50;99.90
17815;DHT22;9031;50.974;11.330;2022-12-18T11:01:50;-2.40;99.90
17815;DHT22;9031;50.974;11.330;2022-12-18T11:04:19;-2.40;99.90
17815;DHT22;9031;50.974;11.330;2022-12-18T11:07:06;-2.50;99.90
17815;DHT22;9031;50.974;11.330;2022-12-18T11:09:33;-2.40;99.90
17815;DHT22;9031;50.974;11.330;2022-12-18T11:12:04;-2.40;99.90
17815;DHT22;9031;50.974;11.330;2022-12-18T11:14:34;-2.20;99.90
17815;DHT22;9031;50.974;11.330;2022-12-18T11:17:31;-1.90;99.90
17815;DHT22;9031;50.974;11.330;2022-12-18T11:19:58;-1.80;99.90
17815;DHT22;9031;50.974;11.330;2022-12-18T11:22:30;-1.60;99.90
17815;DHT22;9031;50.974;11.330;2022-12-18T11:25:03;-1.50;99.90
17815;DHT22;9031;50.974;11.330;2022-12-18T11:27:30;-1.30;99.90
17815;DHT22;9031;50.974;11.330;2022-12-18T11:30:20;-1.20;99.90
17815;DHT22;9031;50.974;11.330;2022-12-18T11:32:49;-1.00;99.90
17815;DHT22;9031;50.974;11.330;2022-12-18T11:35:31;-1.00;99.90
17815;DHT22;9031;50.974;11.330;2022-12-18T11:38:12;-0.90;99.90
17815;DHT22;9031;50.974;11.330;2022-12-18T11:40:42;-0.80;99.90
17815;DHT22;9031;50.974;11.330;2022-12-18T11:43:15;-0.70;99.90
17815;DHT22;9031;50.974;11.330;2022-12-18T11:46:08;-0.70;99.90
17815;DHT22;9031;50.974;11.330;2022-12-18T11:48:50;-0.60;99.90
17815;DHT22;9031;50.974;11.330;2022-12-18T11:51:28;-0.40;99.90
17815;DHT22;9031;50.974;11.330;2022-12-18T11:53:57;-0.30;99.90
17815;DHT22;9031;50.974;11.330;2022-12-18T11:56:39;-0.20;99.90
17815;DHT22;9031;50.974;11.330;2022-12-18T12:01:54;-0.60;99.90
17815;DHT22;9031;50.974;11.330;2022-12-18T12:04:45;-0.40;99.90
17815;DHT22;9031;50.974;11.330;2022-12-18T12:07:16;-0.30;99.90
17815;DHT22;9031;50.974;11.330;2022-12-18T12:10:09;0.00;99.90
17815;DHT22;9031;50.974;11.330;2022-12-18T12:12:48;0.10;99.90
17815;DHT22;9031;50.974;11.330;2022-12-18T12:18:15;0.50;99.90
17815;DHT22;9031;50.974;11.330;2022-12-18T12:24:02;0.60;99.90
17815;DHT22;9031;50.974;11.330;2022-12-18T12:26:45;0.70;99.90
17815;DHT22;9031;50.974;11.330;2022-12-18T12:29:28;0.70;99.90
17815;DHT22;9031;50.974;11.330;2022-12-18T12:32:06;0.90;99.90
17815;DHT22;9031;50.974;11.330;2022-12-18T12:40:18;0.80;99.90
17815;DHT22;9031;50.974;11.330;2022-12-18T12:42:53;0.90;99.90
17815;DHT22;9031;50.974;11.330;2022-12-18T12:46:05;1.10;99.90
17815;DHT22;9031;50.974;11.330;2022-12-18T12:48:49;1.00;99.90
17815;DHT22;9031;50.974;11.330;2022-12-18T12:51:22;1.10;99.90
17815;DHT22;9031;50.974;11.330;2022-12-18T12:53:49;1.10;99.90
17815;DHT22;9031;50.974;11.330;2022-12-18T12:56:18;1.00;99.90
17815;DHT22;9031;50.974;11.330;2022-12-18T12:58:58;0.70;99.90
17815;DHT22;9031;50.974;11.330;2022-12-18T13:04:29;0.50;99.90
17815;DHT22;9031;50.974;11.330;2022-12-18T13:07:01;0.50;99.90
17815;DHT22;9031;50.974;11.330;2022-12-18T13:09:33;0.50;99.90
17815;DHT22;9031;50.974;11.330;2022-12-18T13:12:11;0.50;99.90
17815;DHT22;9031;50.974;11.330;2022-12-18T13:15:13;0.30;99.90
17815;DHT22;9031;50.974;11.330;2022-12-18T13:17:45;0.20;99.90
17815;DHT22;9031;50.974;11.330;2022-12-18T13:20:13;0.20;99.90
17815;DHT22;9031;50.974;11.330;2022-12-18T13:22:47;0.20;99.90
17815;DHT22;9031;50.974;11.330;2022-12-18T13:25:34;0.30;99.90
17815;DHT22;9031;50.974;11.330;2022-12-18T13:28:11;0.30;99.90
17815;DHT22;9031;50.974;11.330;2022-12-18T13:41:24;0.20;99.90
17815;DHT22;9031;50.974;11.330;2022-12-18T13:43:52;0.20;99.90
17815;DHT22;9031;50.974;11.330;2022-12-18T13:46:41;0.20;99.90
17815;DHT22;9031;50.974;11.330;2022-12-18T13:51:44;0.30;99.90
17815;DHT22;9031;50.974;11.330;2022-12-18T13:54:28;0.30;99.90
17815;DHT22;9031;50.974;11.330;2022-12-18T13:56:55;0.30;99.90
17815;DHT22;9031;50.974;11.330;2022-12-18T13:59:23;0.20;99.90
17815;DHT22;9031;50.974;11.330;2022-12-18T14:02:00;0.20;99.90
17815;DHT22;9031;50.974;11.330;2022-12-18T14:04:28;0.20;99.90
17815;DHT22;9031;50.974;11.330;2022-12-18T14:07:25;0.20;99.90
17815;DHT22;9031;50.974;11.330;2022-12-18T14:09:56;0.10;99.90
17815;DHT22;9031;50.974;11.330;2022-12-18T14:12:25;0.10;99.90
17815;DHT22;9031;50.974;11.330;2022-12-18T14:15:27;0.00;99.90
17815;DHT22;9031;50.974;11.330;2022-12-18T14:17:57;-0.10;99.90
17815;DHT22;9031;50.974;11.330;2022-12-18T14:20:25;0.00;99.90
17815;DHT22;9031;50.974;11.330;2022-12-18T14:22:51;-0.10;99.90
17815;DHT22;9031;50.974;11.330;2022-12-18T14:25:19;-0.10;99.90
17815;DHT22;9031;50.974;11.330;2022-12-18T14:28:02;-0.10;99.90
17815;DHT22;9031;50.974;11.330;2022-12-18T14:30:35;-0.10;99.90
17815;DHT22;9031;50.974;11.330;2022-12-18T14:33:08;-0.20;99.90
17815;DHT22;9031;50.974;11.330;2022-12-18T14:35:39;-0.20;99.90
17815;DHT22;9031;50.974;11.330;2022-12-18T14:38:22;-0.30;99.90
17815;DHT22;9031;50.974;11.330;2022-12-18T14:40:51;-0.30;99.90
17815;DHT22;9031;50.974;11.330;2022-12-18T14:43:17;-0.30;99.90
17815;DHT22;9031;50.974;11.330;2022-12-18T14:45:43;-0.40;99.90
17815;DHT22;9031;50.974;11.330;2022-12-18T14:48:15;-0.40;99.90
17815;DHT22;9031;50.974;11.330;2022-12-18T14:50:41;-0.40;99.90
17815;DHT22;9031;50.974;11.330;2022-12-18T14:53:19;-0.50;99.90
17815;DHT22;9031;50.974;11.330;2022-12-18T14:55:47;-0.60;99.90
17815;DHT22;9031;50.974;11.330;2022-12-18T14:58:15;-0.60;99.90
17815;DHT22;9031;50.974;11.330;2022-12-18T15:00:42;-0.60;99.90
17815;DHT22;9031;50.974;11.330;2022-12-18T15:03:08;-0.50;99.90
17815;DHT22;9031;50.974;11.330;2022-12-18T15:05:34;-0.50;99.90
17815;DHT22;9031;50.974;11.330;2022-12-18T15:08:00;-0.70;99.90
17815;DHT22;9031;50.974;11.330;2022-12-18T15:10:29;-0.80;99.90
17815;DHT22;9031;50.974;11.330;2022-12-18T15:18:04;-0.80;99.90
17815;DHT22;9031;50.974;11.330;2022-12-18T15:20:38;-0.90;99.90
17815;DHT22;9031;50.974;11.330;2022-12-18T15:23:04;-1.00;99.90
17815;DHT22;9031;50.974;11.330;2022-12-18T15:25:37;-1.00;99.90
17815;DHT22;9031;50.974;11.330;2022-12-18T15:28:03;-1.00;99.90
17815;DHT22;9031;50.974;11.330;2022-12-18T15:30:40;-1.10;99.90
17815;DHT22;9031;50.974;11.330;2022-12-18T15:33:25;-1.00;99.90
17815;DHT22;9031;50.974;11.330;2022-12-18T15:36:02;-1.00;99.90
17815;DHT22;9031;50.974;11.330;2022-12-18T15:38:28;-1.00;99.90
17815;DHT22;9031;50.974;11.330;2022-12-18T15:40:54;-1.00;99.90
17815;DHT22;9031;50.974;11.330;2022-12-18T15:43:23;-1.00;99.90
17815;DHT22;9031;50.974;11.330;2022-12-18T15:46:06;-1.00;99.90
17815;DHT22;9031;50.974;11.330;2022-12-18T15:48:38;-1.00;99.90
17815;DHT22;9031;50.974;11.330;2022-12-18T15:51:05;-0.90;99.90
17815;DHT22;9031;50.974;11.330;2022-12-18T15:53:34;-0.80;99.90
17815;DHT22;9031;50.974;11.330;2022-12-18T15:56:00;-0.90;99.90
17815;DHT22;9031;50.974;11.330;2022-12-18T15:58:44;-0.90;99.90
17815;DHT22;9031;50.974;11.330;2022-12-18T16:01:10;-0.90;99.90
17815;DHT22;9031;50.974;11.330;2022-12-18T16:03:36;-0.90;99.90
17815;DHT22;9031;50.974;11.330;2022-12-18T16:06:02;-1.00;99.90
17815;DHT22;9031;50.974;11.330;2022-12-18T16:08:29;-0.90;99.90
17815;DHT22;9031;50.974;11.330;2022-12-18T16:10:56;-0.90;99.90
17815;DHT22;9031;50.974;11.330;2022-12-18T16:13:21;-0.90;99.90
17815;DHT22;9031;50.974;11.330;2022-12-18T16:15:47;-0.80;99.90
17815;DHT22;9031;50.974;11.330;2022-12-18T16:18:13;-0.80;99.90
17815;DHT22;9031;50.974;11.330;2022-12-18T16:20:39;-0.90;99.90
17815;DHT22;9031;50.974;11.330;2022-12-18T16:23:04;-0.90;99.90
17815;DHT22;9031;50.974;11.330;2022-12-18T16:25:30;-0.90;99.90
17815;DHT22;9031;50.974;11.330;2022-12-18T16:27:56;-0.90;99.90
17815;DHT22;9031;50.974;11.330;2022-12-18T16:30:27;-0.80;99.90
17815;DHT22;9031;50.974;11.330;2022-12-18T16:32:54;-0.80;99.90
17815;DHT22;9031;50.974;11.330;2022-12-18T16:35:20;-0.80;99.90
17815;DHT22;9031;50.974;11.330;2022-12-18T16:37:46;-0.80;99.90
17815;DHT22;9031;50.974;11.330;2022-12-18T16:40:14;-0.80;99.90
17815;DHT22;9031;50.974;11.330;2022-12-18T16:42:41;-0.80;99.90
17815;DHT22;9031;50.974;11.330;2022-12-18T16:45:08;-0.70;99.90
17815;DHT22;9031;50.974;11.330;2022-12-18T16:47:34;-0.70;99.90
17815;DHT22;9031;50.974;11.330;2022-12-18T16:49:59;-0.60;99.90
17815;DHT22;9031;50.974;11.330;2022-12-18T16:52:25;-0.60;99.90
17815;DHT22;9031;50.974;11.330;2022-12-18T16:54:51;-0.60;99.90